createdAt,value
2022-07-25T00:01:55.815Z,24.90
2022-07-25T00:04:23.909Z,24.80
2022-07-25T00:06:51.111Z,24.80
2022-07-25T00:09:18.001Z,24.70
2022-07-25T00:11:45.267Z,24.70
2022-07-25T00:14:12.309Z,24.70
2022-07-25T00:16:40.059Z,24.60
2022-07-25T00:19:07.369Z,24.60
2022-07-25T00:21:34.300Z,24.50
2022-07-25T00:24:01.187Z,24.50
2022-07-25T00:26:28.035Z,24.50
2022-07-25T00:28:54.924Z,24.40
2022-07-25T00:31:21.916Z,24.40
2022-07-25T00:33:48.892Z,24.40
2022-07-25T00:36:15.772Z,24.40
2022-07-25T00:38:42.664Z,24.30
2022-07-25T00:41:09.690Z,24.30
2022-07-25T00:43:36.649Z,24.20
2022-07-25T00:46:04.027Z,24.20
2022-07-25T00:48:31.568Z,24.20
2022-07-25T00:50:59.715Z,24.10
2022-07-25T00:53:26.965Z,24.10
2022-07-25T00:55:54.902Z,24.10
2022-07-25T00:58:21.800Z,24.10
2022-07-25T01:00:48.834Z,24.00
2022-07-25T01:03:16.766Z,24.00
2022-07-25T01:05:43.824Z,23.90
2022-07-25T01:08:12.451Z,23.90
2022-07-25T01:10:40.024Z,23.90
2022-07-25T01:13:06.987Z,23.80
2022-07-25T01:15:34.210Z,23.80
2022-07-25T01:18:01.098Z,23.80
2022-07-25T01:20:30.540Z,23.80
2022-07-25T01:22:58.725Z,23.70
2022-07-25T01:25:27.706Z,23.70
2022-07-25T01:27:56.130Z,23.70
2022-07-25T01:30:24.913Z,23.70
2022-07-25T01:32:52.669Z,23.70
2022-07-25T01:35:20.142Z,23.60
2022-07-25T01:37:47.218Z,23.60
2022-07-25T01:40:15.071Z,23.60
2022-07-25T01:42:43.264Z,23.50
2022-07-25T01:45:12.110Z,23.50
2022-07-25T01:47:39.079Z,23.50
2022-07-25T01:50:07.086Z,23.40
2022-07-25T01:52:34.028Z,23.40
2022-07-25T01:55:01.023Z,23.40
2022-07-25T01:57:30.835Z,23.40
2022-07-25T01:59:59.110Z,23.30
2022-07-25T02:02:26.835Z,23.30
2022-07-25T02:04:54.248Z,23.20
2022-07-25T02:07:21.216Z,23.20
2022-07-25T02:09:50.153Z,23.20
2022-07-25T02:12:20.402Z,23.10
2022-07-25T02:14:47.316Z,23.10
2022-07-25T02:17:14.296Z,23.10
2022-07-25T02:19:41.258Z,23.10
2022-07-25T02:22:08.323Z,23.00
2022-07-25T02:24:37.100Z,23.00
2022-07-25T02:27:05.824Z,22.90
2022-07-25T02:29:33.343Z,22.90
2022-07-25T02:32:00.319Z,22.90
2022-07-25T02:34:27.298Z,22.90
2022-07-25T02:36:54.256Z,22.90
2022-07-25T02:39:21.464Z,22.80
2022-07-25T02:41:48.356Z,22.80
2022-07-25T02:44:15.259Z,22.80
2022-07-25T02:46:42.188Z,22.80
2022-07-25T02:49:09.124Z,22.80
2022-07-25T02:51:36.049Z,22.70
2022-07-25T02:54:02.918Z,22.70
2022-07-25T02:56:31.975Z,22.70
2022-07-25T02:58:59.263Z,22.70
2022-07-25T03:01:26.899Z,22.70
2022-07-25T03:03:53.904Z,22.60
2022-07-25T03:06:20.942Z,22.60
2022-07-25T03:08:47.850Z,22.60
2022-07-25T03:11:14.842Z,22.60
2022-07-25T03:13:41.688Z,22.60
2022-07-25T03:16:09.804Z,22.50
2022-07-25T03:18:37.228Z,22.50
2022-07-25T03:21:04.479Z,22.50
2022-07-25T03:23:32.287Z,22.50
2022-07-25T03:25:59.255Z,22.50
2022-07-25T03:28:26.316Z,22.40
2022-07-25T03:30:53.734Z,22.40
2022-07-25T03:33:20.627Z,22.40
2022-07-25T03:35:47.564Z,22.40
2022-07-25T03:38:14.567Z,22.40
2022-07-25T03:40:41.577Z,22.40
2022-07-25T03:43:08.639Z,22.40
2022-07-25T03:45:35.617Z,22.30
2022-07-25T03:48:03.323Z,22.30
2022-07-25T03:50:30.269Z,22.30
2022-07-25T03:52:57.211Z,22.30
2022-07-25T03:55:24.080Z,22.30
2022-07-25T03:57:51.045Z,22.30
2022-07-25T04:00:18.740Z,22.20
2022-07-25T04:02:45.734Z,22.20
2022-07-25T04:05:12.919Z,22.20
2022-07-25T04:07:39.890Z,22.20
2022-07-25T04:10:08.209Z,22.20
2022-07-25T04:12:35.109Z,22.10
2022-07-25T04:15:02.257Z,22.20
2022-07-25T04:17:29.248Z,22.20
2022-07-25T04:19:56.253Z,22.10
2022-07-25T04:22:23.638Z,22.20
2022-07-25T04:24:50.666Z,22.20
2022-07-25T04:27:17.523Z,22.20
2022-07-25T04:29:44.425Z,22.20
2022-07-25T04:32:11.446Z,22.20
2022-07-25T04:34:38.376Z,22.20
2022-07-25T04:37:05.231Z,22.20
2022-07-25T04:39:32.433Z,22.30
2022-07-25T04:41:59.429Z,22.30
2022-07-25T04:44:26.440Z,22.40
2022-07-25T04:46:53.296Z,22.50
2022-07-25T04:49:20.381Z,22.50
2022-07-25T04:51:47.285Z,22.60
2022-07-25T04:54:14.184Z,22.60
2022-07-25T04:56:41.037Z,22.70
2022-07-25T04:59:07.936Z,22.80
2022-07-25T05:01:36.290Z,22.90
2022-07-25T05:04:03.349Z,23.00
2022-07-25T05:06:30.522Z,23.00
2022-07-25T05:08:57.323Z,23.10
2022-07-25T05:11:24.231Z,23.20
2022-07-25T05:13:51.103Z,23.30
2022-07-25T05:16:18.006Z,23.40
2022-07-25T05:18:44.949Z,23.50
2022-07-25T05:21:13.531Z,23.60
2022-07-25T05:23:41.244Z,23.60
2022-07-25T05:26:08.289Z,23.70
2022-07-25T05:28:35.845Z,23.80
2022-07-25T05:31:03.023Z,23.90
2022-07-25T05:33:29.999Z,24.00
2022-07-25T05:35:56.896Z,24.10
2022-07-25T05:38:23.736Z,24.20
2022-07-25T05:40:52.278Z,24.30
2022-07-25T05:43:19.681Z,24.40
2022-07-25T05:45:47.477Z,24.50
2022-07-25T05:48:15.327Z,24.60
2022-07-25T05:50:42.479Z,24.70
2022-07-25T05:53:09.506Z,24.70
2022-07-25T05:55:40.265Z,24.90
2022-07-25T05:58:09.436Z,25.00
2022-07-25T06:00:36.912Z,25.10
2022-07-25T06:03:04.213Z,25.20
2022-07-25T06:05:31.575Z,25.30
2022-07-25T06:07:58.538Z,25.40
2022-07-25T06:10:25.689Z,25.50
2022-07-25T06:12:52.959Z,25.50
2022-07-25T06:15:23.092Z,25.60
2022-07-25T06:17:54.667Z,25.70
2022-07-25T06:20:21.887Z,25.80
2022-07-25T06:22:48.872Z,25.90
2022-07-25T06:25:16.106Z,26.00
2022-07-25T06:27:43.003Z,26.10
2022-07-25T06:30:19.739Z,26.20
2022-07-25T06:32:50.987Z,26.20
2022-07-25T06:35:18.623Z,26.30
2022-07-25T06:37:45.916Z,26.40
2022-07-25T06:40:14.364Z,26.50
2022-07-25T06:42:43.760Z,26.60
2022-07-25T06:45:12.232Z,26.70
2022-07-25T06:47:41.493Z,26.70
2022-07-25T06:50:12.612Z,26.80
2022-07-25T06:52:40.843Z,26.90
2022-07-25T06:55:10.137Z,27.00
2022-07-25T06:57:37.748Z,27.10
2022-07-25T07:03:02.759Z,27.30
2022-07-25T07:05:33.890Z,27.50
2022-07-25T07:08:01.208Z,27.50
2022-07-25T07:10:28.890Z,27.70
2022-07-25T07:13:15.217Z,27.90
2022-07-25T07:15:50.299Z,28.00
2022-07-25T07:18:18.779Z,28.10
2022-07-25T07:20:46.224Z,28.20
2022-07-25T07:23:16.550Z,28.40
2022-07-25T07:25:45.836Z,28.50
2022-07-25T07:28:13.036Z,28.70
2022-07-25T07:31:13.372Z,28.80
2022-07-25T07:33:27.045Z,28.90
2022-07-25T07:35:55.961Z,29.00
2022-07-25T07:38:25.194Z,29.10
2022-07-25T07:40:53.638Z,29.20
2022-07-25T07:43:20.663Z,29.30
2022-07-25T07:45:47.622Z,29.40
2022-07-25T07:48:14.494Z,29.50
2022-07-25T07:50:41.659Z,29.70
2022-07-25T07:53:08.571Z,29.80
2022-07-25T07:55:44.220Z,29.90
2022-07-25T07:58:17.282Z,30.00
2022-07-25T08:00:51.611Z,30.20
2022-07-25T08:03:21.757Z,30.30
2022-07-25T08:05:49.842Z,30.40
2022-07-25T08:08:16.968Z,30.60
2022-07-25T08:10:47.315Z,30.70
2022-07-25T08:13:21.301Z,30.80
2022-07-25T08:15:57.227Z,31.00
2022-07-25T08:18:25.861Z,31.10
2022-07-25T08:20:53.645Z,31.20
2022-07-25T08:23:20.710Z,31.30
2022-07-25T08:25:48.620Z,31.50
2022-07-25T08:28:15.525Z,31.60
2022-07-25T08:30:43.443Z,31.70
2022-07-25T08:33:13.695Z,31.80
2022-07-25T08:35:45.302Z,32.00
2022-07-25T08:38:12.259Z,32.20
2022-07-25T08:40:39.398Z,32.30
2022-07-25T08:43:06.529Z,32.40
2022-07-25T08:45:34.057Z,32.60
2022-07-25T08:48:00.920Z,32.80
2022-07-25T08:50:30.149Z,33.00
2022-07-25T08:53:16.622Z,33.40
2022-07-25T08:55:45.797Z,33.80
2022-07-25T08:58:15.289Z,34.20
2022-07-25T09:00:43.191Z,34.60
2022-07-25T09:03:10.929Z,35.10
2022-07-25T09:05:39.285Z,35.50
2022-07-25T09:08:12.678Z,36.00
2022-07-25T09:10:45.347Z,36.50
2022-07-25T09:13:14.605Z,36.90
2022-07-25T09:15:50.290Z,37.20
2022-07-25T09:18:23.227Z,37.50
2022-07-25T09:20:58.558Z,37.70
2022-07-25T09:23:31.109Z,38.00
2022-07-25T09:26:15.018Z,38.20
2022-07-25T09:28:48.257Z,38.40
2022-07-25T09:31:18.912Z,38.50
2022-07-25T09:33:57.000Z,38.60
2022-07-25T09:36:24.348Z,38.80
2022-07-25T09:39:01.323Z,38.80
2022-07-25T09:41:40.619Z,39.00
2022-07-25T09:44:30.270Z,39.20
2022-07-25T09:49:53.301Z,39.30
2022-07-25T09:52:20.340Z,39.40
2022-07-25T09:54:47.214Z,39.40
2022-07-25T09:57:14.154Z,39.40
2022-07-25T09:59:41.235Z,39.60
2022-07-25T10:02:32.552Z,39.70
2022-07-25T10:05:48.230Z,40.00
2022-07-25T10:08:15.462Z,40.30
2022-07-25T10:10:43.005Z,40.60
2022-07-25T10:13:15.376Z,40.70
2022-07-25T10:15:52.061Z,40.80
2022-07-25T10:18:28.266Z,40.90
2022-07-25T10:21:25.522Z,40.80
2022-07-25T10:24:06.950Z,40.90
2022-07-25T10:26:39.793Z,41.00
2022-07-25T10:29:13.936Z,41.20
2022-07-25T10:31:50.422Z,41.40
2022-07-25T10:34:31.007Z,41.60
2022-07-25T10:37:15.331Z,41.80
2022-07-25T10:39:45.493Z,42.00
2022-07-25T10:42:20.720Z,42.30
2022-07-25T10:44:57.485Z,42.30
2022-07-25T10:47:27.999Z,42.30
2022-07-25T10:53:00.634Z,42.20
2022-07-25T10:55:29.099Z,42.30
2022-07-25T10:58:21.624Z,42.20
2022-07-25T11:00:51.089Z,42.20
2022-07-25T11:03:18.822Z,42.10
2022-07-25T11:05:47.723Z,41.90
2022-07-25T11:08:23.063Z,41.50
2022-07-25T11:10:53.489Z,41.30
2022-07-25T11:13:21.152Z,41.20
2022-07-25T11:15:48.661Z,41.10
2022-07-25T11:18:15.915Z,41.10
2022-07-25T11:20:42.791Z,41.00
2022-07-25T11:23:09.892Z,41.00
2022-07-25T11:25:36.741Z,41.00
2022-07-25T11:28:04.115Z,41.10
2022-07-25T11:30:31.155Z,41.00
2022-07-25T11:33:01.686Z,40.90
2022-07-25T11:35:32.423Z,40.60
2022-07-25T11:38:02.305Z,40.40
2022-07-25T11:40:31.495Z,40.00
2022-07-25T11:43:00.359Z,39.80
2022-07-25T11:45:34.097Z,39.50
2022-07-25T11:48:13.403Z,39.20
2022-07-25T11:50:43.541Z,38.90
2022-07-25T11:53:14.930Z,38.70
2022-07-25T11:55:44.008Z,38.40
2022-07-25T11:58:13.070Z,38.20
2022-07-25T12:00:43.916Z,38.00
2022-07-25T12:03:21.140Z,37.80
2022-07-25T12:05:50.160Z,37.70
2022-07-25T12:08:20.719Z,37.60
2022-07-25T12:10:51.396Z,37.60
2022-07-25T12:13:25.659Z,37.60
2022-07-25T12:15:53.079Z,37.50
2022-07-25T12:18:20.078Z,37.50
2022-07-25T12:20:46.917Z,37.50
2022-07-25T12:23:14.305Z,37.50
2022-07-25T12:25:45.079Z,37.60
2022-07-25T12:28:12.777Z,37.60
2022-07-25T12:30:42.175Z,37.60
2022-07-25T12:33:10.171Z,37.70
2022-07-25T12:35:37.488Z,37.70
2022-07-25T12:38:04.888Z,37.80
2022-07-25T12:40:32.101Z,37.90
2022-07-25T12:42:59.466Z,37.90
2022-07-25T12:45:27.236Z,38.00
2022-07-25T12:47:54.484Z,38.10
2022-07-25T12:50:21.667Z,38.20
2022-07-25T12:52:48.958Z,38.20
2022-07-25T12:55:18.164Z,38.30
2022-07-25T12:57:46.475Z,38.40
2022-07-25T13:00:16.886Z,38.40
2022-07-25T13:02:44.101Z,38.40
2022-07-25T13:05:11.526Z,38.40
2022-07-25T13:07:38.748Z,38.40
2022-07-25T13:10:07.535Z,38.50
2022-07-25T13:12:34.589Z,38.50
2022-07-25T13:15:01.895Z,38.50
2022-07-25T13:17:28.798Z,38.60
2022-07-25T13:19:56.723Z,38.70
2022-07-25T13:22:25.538Z,38.80
2022-07-25T13:24:53.608Z,38.90
2022-07-25T13:27:22.336Z,39.10
2022-07-25T13:29:56.220Z,39.40
2022-07-25T13:32:23.570Z,39.70
2022-07-25T13:34:50.643Z,39.90
2022-07-25T13:37:17.738Z,40.30
2022-07-25T13:39:44.932Z,40.60
2022-07-25T13:42:11.805Z,40.80
2022-07-25T13:44:38.811Z,41.00
2022-07-25T13:47:06.129Z,41.30
2022-07-25T13:49:33.106Z,41.50
2022-07-25T13:51:59.957Z,41.80
2022-07-25T13:54:27.083Z,42.00
2022-07-25T13:56:54.018Z,42.10
2022-07-25T13:59:21.852Z,42.20
2022-07-25T14:01:50.453Z,42.40
2022-07-25T14:04:17.806Z,42.60
2022-07-25T14:06:44.942Z,42.80
2022-07-25T14:09:11.991Z,43.10
2022-07-25T14:11:39.105Z,43.50
2022-07-25T14:14:06.049Z,43.90
2022-07-25T14:16:34.430Z,44.30
2022-07-25T14:19:02.487Z,44.70
2022-07-25T14:21:30.349Z,45.00
2022-07-25T14:23:57.267Z,45.20
2022-07-25T14:26:25.777Z,45.50
2022-07-25T14:28:52.783Z,45.60
2022-07-25T14:31:19.647Z,45.60
2022-07-25T14:33:46.954Z,45.60
2022-07-25T14:36:13.905Z,45.60
2022-07-25T14:38:40.831Z,45.60
2022-07-25T14:41:12.379Z,45.70
2022-07-25T14:43:41.102Z,45.80
2022-07-25T14:46:08.984Z,45.90
2022-07-25T14:48:37.684Z,46.10
2022-07-25T14:51:06.064Z,46.30
2022-07-25T14:53:34.763Z,46.30
2022-07-25T14:56:04.894Z,46.30
2022-07-25T14:58:33.542Z,46.30
2022-07-25T15:01:00.739Z,46.20
2022-07-25T15:03:27.737Z,46.10
2022-07-25T15:05:54.678Z,45.90
2022-07-25T15:08:22.010Z,45.70
2022-07-25T15:10:49.061Z,45.70
2022-07-25T15:13:32.346Z,45.70
2022-07-25T15:16:00.810Z,45.90
2022-07-25T15:18:28.657Z,45.90
2022-07-25T15:20:55.863Z,45.90
2022-07-25T15:23:25.090Z,45.70
2022-07-25T15:26:02.949Z,45.60
2022-07-25T15:28:36.558Z,45.60
2022-07-25T15:31:04.843Z,45.70
2022-07-25T15:33:32.132Z,45.80
2022-07-25T15:35:59.481Z,45.90
2022-07-25T15:38:26.476Z,45.90
2022-07-25T15:40:53.689Z,45.90
2022-07-25T15:43:21.160Z,45.90
2022-07-25T15:45:48.058Z,45.80
2022-07-25T15:48:16.827Z,45.80
2022-07-25T15:50:47.867Z,45.90
2022-07-25T15:53:15.248Z,46.00
2022-07-25T15:55:43.231Z,46.10
2022-07-25T15:58:11.277Z,46.10
2022-07-25T16:00:39.987Z,46.00
2022-07-25T16:03:07.945Z,45.90
2022-07-25T16:05:35.486Z,45.80
2022-07-25T16:08:03.585Z,45.70
2022-07-25T16:10:32.735Z,45.60
2022-07-25T16:12:59.997Z,45.40
2022-07-25T16:15:27.296Z,45.30
2022-07-25T16:18:01.831Z,45.20
2022-07-25T16:20:31.552Z,45.10
2022-07-25T16:22:59.720Z,45.20
2022-07-25T16:25:29.195Z,45.20
2022-07-25T16:27:56.532Z,45.20
2022-07-25T16:30:24.110Z,45.20
2022-07-25T16:32:51.089Z,45.20
2022-07-25T16:35:18.010Z,45.20
2022-07-25T16:37:45.246Z,45.20
2022-07-25T16:40:12.662Z,45.10
2022-07-25T16:42:39.674Z,44.90
2022-07-25T16:45:07.332Z,44.70
2022-07-25T16:47:34.799Z,44.50
2022-07-25T16:50:01.714Z,44.30
2022-07-25T16:52:28.713Z,44.10
2022-07-25T16:54:55.608Z,43.90
2022-07-25T16:57:23.802Z,43.60
2022-07-25T16:59:53.417Z,43.40
2022-07-25T17:02:25.041Z,43.20
2022-07-25T17:04:54.855Z,43.00
2022-07-25T17:07:21.841Z,42.90
2022-07-25T17:09:48.748Z,42.80
2022-07-25T17:12:17.364Z,42.70
2022-07-25T17:14:45.292Z,42.60
2022-07-25T17:17:13.054Z,42.40
2022-07-25T17:19:40.205Z,42.20
2022-07-25T17:22:08.297Z,42.00
2022-07-25T17:24:35.661Z,41.70
2022-07-25T17:27:03.148Z,41.50
2022-07-25T17:29:30.255Z,41.10
2022-07-25T17:31:57.543Z,40.70
2022-07-25T17:34:26.702Z,40.30
2022-07-25T17:36:55.484Z,39.80
2022-07-25T17:39:22.633Z,39.50
2022-07-25T17:41:52.579Z,39.20
2022-07-25T17:44:20.229Z,39.00
2022-07-25T17:46:47.494Z,38.80
2022-07-25T17:49:14.655Z,38.50
2022-07-25T17:51:41.675Z,38.20
2022-07-25T17:54:09.113Z,38.00
2022-07-25T17:56:37.077Z,37.70
2022-07-25T17:59:04.164Z,37.50
2022-07-25T18:01:31.059Z,37.30
2022-07-25T18:03:58.232Z,37.00
2022-07-25T18:06:29.727Z,36.90
2022-07-25T18:08:57.788Z,36.70
2022-07-25T18:11:27.163Z,36.60
2022-07-25T18:13:54.104Z,36.50
2022-07-25T18:16:21.254Z,36.30
2022-07-25T18:18:48.266Z,36.20
2022-07-25T18:21:15.191Z,36.10
2022-07-25T18:23:42.085Z,36.00
2022-07-25T18:26:09.473Z,35.90
2022-07-25T18:28:36.760Z,35.80
2022-07-25T18:31:04.576Z,35.70
2022-07-25T18:33:31.663Z,35.60
2022-07-25T18:36:00.106Z,35.50
2022-07-25T18:38:28.729Z,35.50
2022-07-25T18:41:18.874Z,35.40
2022-07-25T18:43:42.889Z,35.20
2022-07-25T18:46:12.865Z,35.10
2022-07-25T18:48:42.920Z,35.00
2022-07-25T18:51:10.611Z,34.80
2022-07-25T18:53:38.355Z,34.60
2022-07-25T18:56:05.911Z,34.50
2022-07-25T18:58:33.398Z,34.40
2022-07-25T19:01:02.697Z,34.30
2022-07-25T19:03:31.575Z,34.10
2022-07-25T19:06:03.083Z,34.00
2022-07-25T19:08:30.518Z,33.90
2022-07-25T19:10:57.439Z,33.80
2022-07-25T19:13:47.615Z,33.70
2022-07-25T19:16:12.059Z,33.60
2022-07-25T19:18:40.068Z,33.50
2022-07-25T19:21:07.457Z,33.40
2022-07-25T19:23:34.762Z,33.30
2022-07-25T19:26:02.629Z,33.30
2022-07-25T19:28:29.685Z,33.20
2022-07-25T19:30:57.174Z,33.10
2022-07-25T19:33:24.420Z,33.00
2022-07-25T19:35:52.463Z,33.00
2022-07-25T19:38:20.145Z,32.90
2022-07-25T19:40:47.197Z,32.90
2022-07-25T19:43:14.285Z,32.80
2022-07-25T19:45:41.407Z,32.80
2022-07-25T19:48:08.467Z,32.70
2022-07-25T19:50:35.435Z,32.70
2022-07-25T19:53:02.760Z,32.60
2022-07-25T19:55:29.719Z,32.60
2022-07-25T19:57:56.740Z,32.50
2022-07-25T20:00:23.834Z,32.40
2022-07-25T20:02:50.889Z,32.40
2022-07-25T20:05:19.314Z,32.30
2022-07-25T20:07:46.343Z,32.30
2022-07-25T20:10:13.390Z,32.20
2022-07-25T20:12:44.996Z,32.20
2022-07-25T20:15:11.951Z,32.10
2022-07-25T20:17:39.335Z,32.00
2022-07-25T20:20:08.550Z,32.00
2022-07-25T20:22:39.533Z,32.00
2022-07-25T20:25:12.863Z,32.00
2022-07-25T20:27:39.856Z,31.90
2022-07-25T20:30:09.061Z,31.90
2022-07-25T20:32:36.422Z,31.80
2022-07-25T20:35:05.513Z,31.70
2022-07-25T20:37:32.595Z,31.70
2022-07-25T20:39:59.514Z,31.50
2022-07-25T20:42:26.512Z,31.40
2022-07-25T20:44:53.421Z,31.10
2022-07-25T20:47:20.465Z,30.90
2022-07-25T20:49:47.517Z,30.60
2022-07-25T20:52:14.473Z,30.30
2022-07-25T20:54:42.985Z,29.90
2022-07-25T20:57:11.534Z,29.50
2022-07-25T20:59:38.459Z,29.10
2022-07-25T21:02:05.697Z,28.60
2022-07-25T21:04:32.648Z,28.20
2022-07-25T21:06:59.503Z,27.90
2022-07-25T21:09:30.888Z,27.60
2022-07-25T21:12:01.344Z,27.40
2022-07-25T21:14:28.938Z,27.20
2022-07-25T21:16:56.121Z,27.00
2022-07-25T21:19:23.237Z,26.80
2022-07-25T21:21:50.906Z,26.70
2022-07-25T21:24:17.763Z,26.50
2022-07-25T21:26:45.101Z,26.30
2022-07-25T21:29:12.331Z,26.10
2022-07-25T21:31:40.098Z,25.90
2022-07-25T21:34:07.084Z,25.80
2022-07-25T21:36:34.932Z,25.70
2022-07-25T21:39:01.842Z,25.50
2022-07-25T21:41:28.710Z,25.40
2022-07-25T21:43:55.731Z,25.20
2022-07-25T21:46:22.730Z,25.00
2022-07-25T21:49:08.644Z,24.70
2022-07-25T21:51:40.937Z,24.30
2022-07-25T21:54:08.629Z,23.90
2022-07-25T21:56:35.593Z,23.50
2022-07-25T21:59:02.495Z,23.10
2022-07-25T22:01:29.759Z,22.90
2022-07-25T22:03:56.753Z,22.70
2022-07-25T22:06:23.747Z,22.40
2022-07-25T22:08:50.649Z,22.30
2022-07-25T22:11:43.113Z,22.10
2022-07-25T22:14:04.669Z,22.00
2022-07-25T22:16:31.954Z,21.90
2022-07-25T22:18:59.662Z,21.80
2022-07-25T22:21:27.003Z,21.70
2022-07-25T22:23:53.855Z,21.70
2022-07-25T22:26:21.215Z,21.60
2022-07-25T22:28:49.150Z,21.60
2022-07-25T22:31:17.477Z,21.60
2022-07-25T22:33:44.478Z,21.50
2022-07-25T22:36:11.570Z,21.50
2022-07-25T22:38:38.512Z,21.50
2022-07-25T22:41:05.685Z,21.50
2022-07-25T22:43:58.453Z,21.40
2022-07-25T22:46:19.471Z,21.40
2022-07-25T22:48:46.512Z,21.30
2022-07-25T22:51:13.517Z,21.30
2022-07-25T22:53:40.385Z,21.20
2022-07-25T22:56:07.337Z,21.20
2022-07-25T22:58:34.223Z,21.20
2022-07-25T23:01:01.129Z,21.10
2022-07-25T23:03:31.542Z,21.10
2022-07-25T23:06:01.130Z,21.10
2022-07-25T23:08:28.401Z,21.10
2022-07-25T23:10:55.732Z,21.10
2022-07-25T23:13:22.830Z,21.00
2022-07-25T23:15:51.565Z,21.00
2022-07-25T23:18:19.471Z,21.10
2022-07-25T23:20:46.934Z,21.00
2022-07-25T23:23:14.017Z,21.10
2022-07-25T23:25:40.919Z,21.10
2022-07-25T23:28:07.815Z,21.10
2022-07-25T23:30:40.085Z,21.10
2022-07-25T23:33:08.629Z,21.10
2022-07-25T23:35:35.822Z,21.10
2022-07-25T23:38:03.683Z,21.00
2022-07-25T23:40:31.098Z,21.00
2022-07-25T23:42:57.977Z,21.00
2022-07-25T23:45:27.708Z,20.90
2022-07-25T23:47:55.840Z,20.90
2022-07-25T23:50:23.877Z,20.90
2022-07-25T23:52:51.455Z,20.90
2022-07-25T23:55:18.455Z,21.00
2022-07-25T23:57:45.611Z,21.00
